sensor_id;sensor_type;location;lat;lon;timestamp;temperature;humidity
18153;DHT22;9202;51.578;7.734;2023-02-26T00:00:50;-0.50;99.90
18153;DHT22;9202;51.578;7.734;2023-02-26T00:02:53;-0.60;99.90
18153;DHT22;9202;51.578;7.734;2023-02-26T00:04:55;-0.60;99.90
18153;DHT22;9202;51.578;7.734;2023-02-26T00:06:58;-0.60;99.90
18153;DHT22;9202;51.578;7.734;2023-02-26T00:09:01;-0.70;99.90
18153;DHT22;9202;51.578;7.734;2023-02-26T00:11:05;-0.60;99.90
18153;DHT22;9202;51.578;7.734;2023-02-26T00:13:09;-0.60;99.90
18153;DHT22;9202;51.578;7.734;2023-02-26T00:15:13;-0.70;99.90
18153;DHT22;9202;51.578;7.734;2023-02-26T00:17:22;-0.70;99.90
18153;DHT22;9202;51.578;7.734;2023-02-26T00:19:29;-0.70;99.90
18153;DHT22;9202;51.578;7.734;2023-02-26T00:22:05;-0.80;99.90
18153;DHT22;9202;51.578;7.734;2023-02-26T00:24:15;-0.80;99.90
18153;DHT22;9202;51.578;7.734;2023-02-26T00:26:19;-0.80;99.90
18153;DHT22;9202;51.578;7.734;2023-02-26T00:28:23;-0.80;99.90
18153;DHT22;9202;51.578;7.734;2023-02-26T00:30:26;-0.80;99.90
18153;DHT22;9202;51.578;7.734;2023-02-26T00:32:29;-0.80;99.90
18153;DHT22;9202;51.578;7.734;2023-02-26T00:34:34;-0.90;99.90
18153;DHT22;9202;51.578;7.734;2023-02-26T00:36:38;-0.90;99.90
18153;DHT22;9202;51.578;7.734;2023-02-26T00:38:42;-0.90;99.90
18153;DHT22;9202;51.578;7.734;2023-02-26T00:40:47;-0.90;99.90
18153;DHT22;9202;51.578;7.734;2023-02-26T00:42:50;-0.90;99.90
18153;DHT22;9202;51.578;7.734;2023-02-26T00:44:53;-0.90;99.90
18153;DHT22;9202;51.578;7.734;2023-02-26T00:46:58;-1.00;99.90
18153;DHT22;9202;51.578;7.734;2023-02-26T00:49:03;-0.90;99.90
18153;DHT22;9202;51.578;7.734;2023-02-26T00:51:09;-0.90;99.90
18153;DHT22;9202;51.578;7.734;2023-02-26T00:53:13;-0.90;99.90
18153;DHT22;9202;51.578;7.734;2023-02-26T00:55:17;-1.00;99.90
18153;DHT22;9202;51.578;7.734;2023-02-26T00:57:20;-0.90;99.90
18153;DHT22;9202;51.578;7.734;2023-02-26T00:59:23;-1.00;99.90
18153;DHT22;9202;51.578;7.734;2023-02-26T01:01:26;-1.00;99.90
18153;DHT22;9202;51.578;7.734;2023-02-26T01:03:30;-1.00;99.90
18153;DHT22;9202;51.578;7.734;2023-02-26T01:05:33;-1.10;99.90
18153;DHT22;9202;51.578;7.734;2023-02-26T01:07:37;-1.00;99.90
18153;DHT22;9202;51.578;7.734;2023-02-26T01:09:41;-1.00;99.90
18153;DHT22;9202;51.578;7.734;2023-02-26T01:11:45;-1.00;99.90
18153;DHT22;9202;51.578;7.734;2023-02-26T01:13:48;-1.10;99.90
18153;DHT22;9202;51.578;7.734;2023-02-26T01:15:51;-1.20;99.90
18153;DHT22;9202;51.578;7.734;2023-02-26T01:17:57;-1.10;99.90
18153;DHT22;9202;51.578;7.734;2023-02-26T01:20:00;-1.10;99.90
18153;DHT22;9202;51.578;7.734;2023-02-26T01:22:06;-1.10;99.90
18153;DHT22;9202;51.578;7.734;2023-02-26T01:24:10;-1.10;99.90
18153;DHT22;9202;51.578;7.734;2023-02-26T01:26:14;-1.00;99.90
18153;DHT22;9202;51.578;7.734;2023-02-26T01:28:18;-1.00;99.90
18153;DHT22;9202;51.578;7.734;2023-02-26T01:30:23;-1.10;99.90
18153;DHT22;9202;51.578;7.734;2023-02-26T01:32:34;-1.10;99.90
18153;DHT22;9202;51.578;7.734;2023-02-26T01:34:32;-1.10;99.90
18153;DHT22;9202;51.578;7.734;2023-02-26T01:36:38;-1.10;99.90
18153;DHT22;9202;51.578;7.734;2023-02-26T01:38:42;-1.10;99.90
18153;DHT22;9202;51.578;7.734;2023-02-26T01:40:53;-1.10;99.90
18153;DHT22;9202;51.578;7.734;2023-02-26T01:42:56;-1.10;99.90
18153;DHT22;9202;51.578;7.734;2023-02-26T01:45:01;-1.10;99.90
18153;DHT22;9202;51.578;7.734;2023-02-26T01:47:08;-1.10;99.90
18153;DHT22;9202;51.578;7.734;2023-02-26T01:49:12;-1.20;99.90
18153;DHT22;9202;51.578;7.734;2023-02-26T01:51:14;-1.10;99.90
18153;DHT22;9202;51.578;7.734;2023-02-26T01:53:19;-1.10;99.90
18153;DHT22;9202;51.578;7.734;2023-02-26T01:55:23;-1.20;99.90
18153;DHT22;9202;51.578;7.734;2023-02-26T01:57:26;-1.10;99.90
18153;DHT22;9202;51.578;7.734;2023-02-26T01:59:28;-1.10;99.90
18153;DHT22;9202;51.578;7.734;2023-02-26T02:01:31;-1.10;99.90
18153;DHT22;9202;51.578;7.734;2023-02-26T02:03:36;-1.10;99.90
18153;DHT22;9202;51.578;7.734;2023-02-26T02:05:40;-1.20;99.90
18153;DHT22;9202;51.578;7.734;2023-02-26T02:07:43;-1.20;99.90
18153;DHT22;9202;51.578;7.734;2023-02-26T02:09:46;-1.20;99.90
18153;DHT22;9202;51.578;7.734;2023-02-26T02:11:55;-1.20;99.90
18153;DHT22;9202;51.578;7.734;2023-02-26T02:14:00;-1.90;99.90
18153;DHT22;9202;51.578;7.734;2023-02-26T02:16:07;-1.20;99.90
18153;DHT22;9202;51.578;7.734;2023-02-26T02:18:13;-1.20;99.90
18153;DHT22;9202;51.578;7.734;2023-02-26T02:22:42;-1.20;99.90
18153;DHT22;9202;51.578;7.734;2023-02-26T02:24:46;-1.20;99.90
18153;DHT22;9202;51.578;7.734;2023-02-26T02:26:53;-1.20;99.90
18153;DHT22;9202;51.578;7.734;2023-02-26T02:29:10;-1.20;99.90
18153;DHT22;9202;51.578;7.734;2023-02-26T02:31:14;-1.20;99.90
18153;DHT22;9202;51.578;7.734;2023-02-26T02:33:18;-1.20;99.90
18153;DHT22;9202;51.578;7.734;2023-02-26T02:35:24;-1.20;99.90
18153;DHT22;9202;51.578;7.734;2023-02-26T02:37:33;-1.30;99.90
18153;DHT22;9202;51.578;7.734;2023-02-26T02:39:33;-1.30;99.90
18153;DHT22;9202;51.578;7.734;2023-02-26T02:41:38;-1.30;99.90
18153;DHT22;9202;51.578;7.734;2023-02-26T02:43:42;-1.30;99.90
18153;DHT22;9202;51.578;7.734;2023-02-26T02:45:49;-1.30;99.90
18153;DHT22;9202;51.578;7.734;2023-02-26T02:47:54;-1.30;99.90
18153;DHT22;9202;51.578;7.734;2023-02-26T02:49:58;-1.30;99.90
18153;DHT22;9202;51.578;7.734;2023-02-26T02:52:04;-1.30;99.90
18153;DHT22;9202;51.578;7.734;2023-02-26T02:54:07;-1.30;99.90
18153;DHT22;9202;51.578;7.734;2023-02-26T02:56:12;-1.30;99.90
18153;DHT22;9202;51.578;7.734;2023-02-26T02:58:17;-1.30;99.90
18153;DHT22;9202;51.578;7.734;2023-02-26T03:00:21;-1.30;99.90
18153;DHT22;9202;51.578;7.734;2023-02-26T03:02:25;-1.40;99.90
18153;DHT22;9202;51.578;7.734;2023-02-26T03:04:29;-1.30;99.90
18153;DHT22;9202;51.578;7.734;2023-02-26T03:06:31;-1.40;99.90
18153;DHT22;9202;51.578;7.734;2023-02-26T03:08:36;-1.40;99.90
18153;DHT22;9202;51.578;7.734;2023-02-26T03:10:39;-1.40;99.90
18153;DHT22;9202;51.578;7.734;2023-02-26T03:12:43;-1.40;99.90
18153;DHT22;9202;51.578;7.734;2023-02-26T03:14:46;-1.40;99.90
18153;DHT22;9202;51.578;7.734;2023-02-26T03:19:14;-1.30;99.90
18153;DHT22;9202;51.578;7.734;2023-02-26T03:21:19;-1.30;99.90
18153;DHT22;9202;51.578;7.734;2023-02-26T03:23:24;-1.30;99.90
18153;DHT22;9202;51.578;7.734;2023-02-26T03:25:28;-1.30;99.90
18153;DHT22;9202;51.578;7.734;2023-02-26T03:27:33;-1.30;99.90
18153;DHT22;9202;51.578;7.734;2023-02-26T03:29:38;-1.30;99.90
18153;DHT22;9202;51.578;7.734;2023-02-26T03:31:46;-1.20;99.90
18153;DHT22;9202;51.578;7.734;2023-02-26T03:33:49;-1.30;99.90
18153;DHT22;9202;51.578;7.734;2023-02-26T03:35:52;-1.30;99.90
18153;DHT22;9202;51.578;7.734;2023-02-26T03:37:57;-1.30;99.90
18153;DHT22;9202;51.578;7.734;2023-02-26T03:40:01;-1.30;99.90
18153;DHT22;9202;51.578;7.734;2023-02-26T03:42:07;-1.30;99.90
18153;DHT22;9202;51.578;7.734;2023-02-26T03:44:13;-1.40;99.90
18153;DHT22;9202;51.578;7.734;2023-02-26T03:46:19;-1.40;99.90
18153;DHT22;9202;51.578;7.734;2023-02-26T03:48:23;-1.40;99.90
18153;DHT22;9202;51.578;7.734;2023-02-26T03:50:28;-1.40;99.90
18153;DHT22;9202;51.578;7.734;2023-02-26T03:52:34;-1.40;99.90
18153;DHT22;9202;51.578;7.734;2023-02-26T03:54:41;-1.40;99.90
18153;DHT22;9202;51.578;7.734;2023-02-26T03:56:46;-1.40;99.90
18153;DHT22;9202;51.578;7.734;2023-02-26T03:58:51;-1.40;99.90
18153;DHT22;9202;51.578;7.734;2023-02-26T04:00:56;-1.50;99.90
18153;DHT22;9202;51.578;7.734;2023-02-26T04:03:01;-1.50;99.90
18153;DHT22;9202;51.578;7.734;2023-02-26T04:05:05;-1.50;99.90
18153;DHT22;9202;51.578;7.734;2023-02-26T04:07:10;-1.50;99.90
18153;DHT22;9202;51.578;7.734;2023-02-26T04:09:14;-1.50;99.90
18153;DHT22;9202;51.578;7.734;2023-02-26T04:11:18;-1.60;99.90
18153;DHT22;9202;51.578;7.734;2023-02-26T04:13:21;-1.50;99.90
18153;DHT22;9202;51.578;7.734;2023-02-26T04:15:24;-1.60;99.90
18153;DHT22;9202;51.578;7.734;2023-02-26T04:17:27;-1.60;99.90
18153;DHT22;9202;51.578;7.734;2023-02-26T04:19:31;-1.50;99.90
18153;DHT22;9202;51.578;7.734;2023-02-26T04:21:34;-1.60;99.90
18153;DHT22;9202;51.578;7.734;2023-02-26T04:23:38;-1.50;99.90
18153;DHT22;9202;51.578;7.734;2023-02-26T04:25:41;-1.60;99.90
18153;DHT22;9202;51.578;7.734;2023-02-26T04:27:44;-1.60;99.90
18153;DHT22;9202;51.578;7.734;2023-02-26T04:29:47;-1.60;99.90
18153;DHT22;9202;51.578;7.734;2023-02-26T04:31:49;-1.60;99.90
18153;DHT22;9202;51.578;7.734;2023-02-26T04:33:52;-1.70;99.90
18153;DHT22;9202;51.578;7.734;2023-02-26T04:35:56;-1.70;99.90
18153;DHT22;9202;51.578;7.734;2023-02-26T04:38:00;-1.70;99.90
18153;DHT22;9202;51.578;7.734;2023-02-26T04:40:03;-1.70;99.90
18153;DHT22;9202;51.578;7.734;2023-02-26T04:42:06;-1.70;99.90
18153;DHT22;9202;51.578;7.734;2023-02-26T04:44:09;-1.70;99.90
18153;DHT22;9202;51.578;7.734;2023-02-26T04:46:13;-1.80;99.90
18153;DHT22;9202;51.578;7.734;2023-02-26T04:48:16;-1.80;99.90
18153;DHT22;9202;51.578;7.734;2023-02-26T04:50:19;-1.80;99.90
18153;DHT22;9202;51.578;7.734;2023-02-26T04:52:24;-1.80;99.90
18153;DHT22;9202;51.578;7.734;2023-02-26T04:54:27;-1.80;99.90
18153;DHT22;9202;51.578;7.734;2023-02-26T04:56:29;-1.80;99.90
18153;DHT22;9202;51.578;7.734;2023-02-26T04:58:33;-1.80;99.90
18153;DHT22;9202;51.578;7.734;2023-02-26T05:00:37;-1.80;99.90
18153;DHT22;9202;51.578;7.734;2023-02-26T05:02:41;-1.90;99.90
18153;DHT22;9202;51.578;7.734;2023-02-26T05:04:43;-1.90;99.90
18153;DHT22;9202;51.578;7.734;2023-02-26T05:06:46;-1.90;99.90
18153;DHT22;9202;51.578;7.734;2023-02-26T05:08:48;-1.90;99.90
18153;DHT22;9202;51.578;7.734;2023-02-26T05:10:52;-2.00;99.90
18153;DHT22;9202;51.578;7.734;2023-02-26T05:12:54;-2.00;99.90
18153;DHT22;9202;51.578;7.734;2023-02-26T05:14:57;-2.00;99.90
18153;DHT22;9202;51.578;7.734;2023-02-26T05:17:00;-2.00;99.90
18153;DHT22;9202;51.578;7.734;2023-02-26T05:19:03;-2.00;99.90
18153;DHT22;9202;51.578;7.734;2023-02-26T05:21:05;-2.10;99.90
18153;DHT22;9202;51.578;7.734;2023-02-26T05:23:08;-2.10;99.90
18153;DHT22;9202;51.578;7.734;2023-02-26T05:25:11;-2.00;99.90
18153;DHT22;9202;51.578;7.734;2023-02-26T05:27:14;-2.10;99.90
18153;DHT22;9202;51.578;7.734;2023-02-26T05:29:19;-2.10;99.90
18153;DHT22;9202;51.578;7.734;2023-02-26T05:31:21;-2.10;99.90
18153;DHT22;9202;51.578;7.734;2023-02-26T05:33:25;-2.20;99.90
18153;DHT22;9202;51.578;7.734;2023-02-26T05:35:28;-2.10;99.90
18153;DHT22;9202;51.578;7.734;2023-02-26T05:37:31;-2.20;99.90
18153;DHT22;9202;51.578;7.734;2023-02-26T05:39:33;-2.20;99.90
18153;DHT22;9202;51.578;7.734;2023-02-26T05:41:36;-2.20;99.90
18153;DHT22;9202;51.578;7.734;2023-02-26T05:43:38;-2.30;99.90
18153;DHT22;9202;51.578;7.734;2023-02-26T05:45:41;-2.20;99.90
18153;DHT22;9202;51.578;7.734;2023-02-26T05:47:43;-2.30;99.90
18153;DHT22;9202;51.578;7.734;2023-02-26T05:49:46;-2.20;99.90
18153;DHT22;9202;51.578;7.734;2023-02-26T05:51:48;-2.30;99.90
18153;DHT22;9202;51.578;7.734;2023-02-26T05:53:51;-2.30;99.90
18153;DHT22;9202;51.578;7.734;2023-02-26T05:55:53;-2.30;99.90
18153;DHT22;9202;51.578;7.734;2023-02-26T05:57:56;-2.30;99.90
18153;DHT22;9202;51.578;7.734;2023-02-26T05:59:59;-2.30;99.90
18153;DHT22;9202;51.578;7.734;2023-02-26T06:02:01;-2.40;99.90
18153;DHT22;9202;51.578;7.734;2023-02-26T06:04:04;-2.30;99.90
18153;DHT22;9202;51.578;7.734;2023-02-26T06:06:06;-1.90;99.90
18153;DHT22;9202;51.578;7.734;2023-02-26T06:08:10;-2.40;99.90
18153;DHT22;9202;51.578;7.734;2023-02-26T06:12:17;-2.30;99.90
18153;DHT22;9202;51.578;7.734;2023-02-26T06:14:19;-2.30;99.90
18153;DHT22;9202;51.578;7.734;2023-02-26T06:16:22;-2.30;99.90
18153;DHT22;9202;51.578;7.734;2023-02-26T06:18:25;-2.30;99.90
18153;DHT22;9202;51.578;7.734;2023-02-26T06:20:29;-2.30;99.90
18153;DHT22;9202;51.578;7.734;2023-02-26T06:22:32;-2.30;99.90
18153;DHT22;9202;51.578;7.734;2023-02-26T06:24:34;-2.40;99.90
18153;DHT22;9202;51.578;7.734;2023-02-26T06:26:37;-2.40;99.90
18153;DHT22;9202;51.578;7.734;2023-02-26T06:28:39;-2.40;99.90
18153;DHT22;9202;51.578;7.734;2023-02-26T06:30:42;-2.40;99.90
18153;DHT22;9202;51.578;7.734;2023-02-26T06:32:45;-2.30;99.90
18153;DHT22;9202;51.578;7.734;2023-02-26T06:34:47;-2.30;99.90
18153;DHT22;9202;51.578;7.734;2023-02-26T06:36:50;-2.30;99.90
18153;DHT22;9202;51.578;7.734;2023-02-26T06:38:52;-2.30;99.90
18153;DHT22;9202;51.578;7.734;2023-02-26T06:40:55;-2.30;99.90
18153;DHT22;9202;51.578;7.734;2023-02-26T06:42:57;-2.30;99.90
18153;DHT22;9202;51.578;7.734;2023-02-26T06:45:00;-2.30;99.90
18153;DHT22;9202;51.578;7.734;2023-02-26T06:47:03;-2.30;99.90
18153;DHT22;9202;51.578;7.734;2023-02-26T06:49:06;-2.30;99.90
18153;DHT22;9202;51.578;7.734;2023-02-26T06:51:08;-2.30;99.90
18153;DHT22;9202;51.578;7.734;2023-02-26T06:53:11;-2.30;99.90
18153;DHT22;9202;51.578;7.734;2023-02-26T06:55:13;-2.20;99.90
18153;DHT22;9202;51.578;7.734;2023-02-26T06:57:16;-2.20;99.90
18153;DHT22;9202;51.578;7.734;2023-02-26T06:59:18;-2.10;99.90
18153;DHT22;9202;51.578;7.734;2023-02-26T07:01:21;-2.00;99.90
18153;DHT22;9202;51.578;7.734;2023-02-26T07:03:25;-2.00;99.90
18153;DHT22;9202;51.578;7.734;2023-02-26T07:05:27;-1.90;99.90
18153;DHT22;9202;51.578;7.734;2023-02-26T07:07:30;-1.90;99.90
18153;DHT22;9202;51.578;7.734;2023-02-26T07:09:32;-1.80;99.90
18153;DHT22;9202;51.578;7.734;2023-02-26T07:11:35;-1.80;99.90
18153;DHT22;9202;51.578;7.734;2023-02-26T07:13:37;-1.80;99.90
18153;DHT22;9202;51.578;7.734;2023-02-26T07:15:40;-1.70;99.90
18153;DHT22;9202;51.578;7.734;2023-02-26T07:17:43;-1.70;99.90
18153;DHT22;9202;51.578;7.734;2023-02-26T07:19:46;-1.60;99.90
18153;DHT22;9202;51.578;7.734;2023-02-26T07:21:48;-1.60;99.90
18153;DHT22;9202;51.578;7.734;2023-02-26T07:23:51;-1.50;99.90
18153;DHT22;9202;51.578;7.734;2023-02-26T07:25:53;-1.50;99.90
18153;DHT22;9202;51.578;7.734;2023-02-26T07:27:57;-1.50;99.90
18153;DHT22;9202;51.578;7.734;2023-02-26T07:30:00;-1.50;99.90
18153;DHT22;9202;51.578;7.734;2023-02-26T07:32:03;-1.50;99.90
18153;DHT22;9202;51.578;7.734;2023-02-26T07:34:06;-1.50;99.90
18153;DHT22;9202;51.578;7.734;2023-02-26T07:36:09;-1.50;99.90
18153;DHT22;9202;51.578;7.734;2023-02-26T07:38:11;-1.40;99.90
18153;DHT22;9202;51.578;7.734;2023-02-26T07:40:14;-1.50;99.90
18153;DHT22;9202;51.578;7.734;2023-02-26T07:42:16;-1.40;99.90
18153;DHT22;9202;51.578;7.734;2023-02-26T07:44:19;-2.10;99.90
18153;DHT22;9202;51.578;7.734;2023-02-26T07:46:22;-1.40;99.90
18153;DHT22;9202;51.578;7.734;2023-02-26T07:48:25;-1.40;99.90
18153;DHT22;9202;51.578;7.734;2023-02-26T07:50:27;-1.40;99.90
18153;DHT22;9202;51.578;7.734;2023-02-26T07:52:30;-1.30;99.90
18153;DHT22;9202;51.578;7.734;2023-02-26T07:54:33;-1.20;99.90
18153;DHT22;9202;51.578;7.734;2023-02-26T07:56:36;-1.10;99.90
18153;DHT22;9202;51.578;7.734;2023-02-26T07:58:39;-1.00;99.90
18153;DHT22;9202;51.578;7.734;2023-02-26T08:00:42;-0.70;99.90
18153;DHT22;9202;51.578;7.734;2023-02-26T08:02:44;-0.80;99.90
18153;DHT22;9202;51.578;7.734;2023-02-26T08:04:46;-0.80;99.90
18153;DHT22;9202;51.578;7.734;2023-02-26T08:06:49;-0.60;99.90
18153;DHT22;9202;51.578;7.734;2023-02-26T08:08:52;-0.60;99.90
18153;DHT22;9202;51.578;7.734;2023-02-26T08:10:54;-0.40;99.90
18153;DHT22;9202;51.578;7.734;2023-02-26T08:12:57;-0.30;99.90
18153;DHT22;9202;51.578;7.734;2023-02-26T08:14:59;-0.20;99.90
18153;DHT22;9202;51.578;7.734;2023-02-26T08:17:02;-0.20;99.90
18153;DHT22;9202;51.578;7.734;2023-02-26T08:19:04;0.00;99.90
18153;DHT22;9202;51.578;7.734;2023-02-26T08:21:07;0.10;99.90
18153;DHT22;9202;51.578;7.734;2023-02-26T08:23:09;0.10;99.90
18153;DHT22;9202;51.578;7.734;2023-02-26T08:25:12;0.20;99.90
18153;DHT22;9202;51.578;7.734;2023-02-26T08:27:15;0.30;99.90
18153;DHT22;9202;51.578;7.734;2023-02-26T08:29:18;0.40;99.90
18153;DHT22;9202;51.578;7.734;2023-02-26T08:31:20;0.50;99.90
18153;DHT22;9202;51.578;7.734;2023-02-26T08:33:23;0.70;99.90
18153;DHT22;9202;51.578;7.734;2023-02-26T08:35:27;0.80;99.90
18153;DHT22;9202;51.578;7.734;2023-02-26T08:37:29;0.80;99.90
18153;DHT22;9202;51.578;7.734;2023-02-26T08:39:32;0.90;99.90
18153;DHT22;9202;51.578;7.734;2023-02-26T08:41:36;1.20;99.90
18153;DHT22;9202;51.578;7.734;2023-02-26T08:43:39;1.20;99.90
18153;DHT22;9202;51.578;7.734;2023-02-26T08:45:41;1.30;99.90
18153;DHT22;9202;51.578;7.734;2023-02-26T08:47:44;1.40;99.90
18153;DHT22;9202;51.578;7.734;2023-02-26T08:49:48;1.40;99.90
18153;DHT22;9202;51.578;7.734;2023-02-26T08:51:51;1.60;99.90
18153;DHT22;9202;51.578;7.734;2023-02-26T08:53:53;1.70;99.90
18153;DHT22;9202;51.578;7.734;2023-02-26T08:55:56;1.40;99.90
18153;DHT22;9202;51.578;7.734;2023-02-26T08:57:58;1.50;99.90
18153;DHT22;9202;51.578;7.734;2023-02-26T09:00:01;1.60;99.90
18153;DHT22;9202;51.578;7.734;2023-02-26T09:02:06;1.80;99.90
18153;DHT22;9202;51.578;7.734;2023-02-26T09:04:08;1.80;99.90
18153;DHT22;9202;51.578;7.734;2023-02-26T09:06:11;2.00;99.90
18153;DHT22;9202;51.578;7.734;2023-02-26T09:08:14;2.10;99.90
18153;DHT22;9202;51.578;7.734;2023-02-26T09:10:17;2.30;99.90
18153;DHT22;9202;51.578;7.734;2023-02-26T09:12:19;2.20;99.90
18153;DHT22;9202;51.578;7.734;2023-02-26T09:14:23;2.30;99.90
18153;DHT22;9202;51.578;7.734;2023-02-26T09:16:26;2.20;99.90
18153;DHT22;9202;51.578;7.734;2023-02-26T09:18:29;2.20;99.90
18153;DHT22;9202;51.578;7.734;2023-02-26T09:20:32;2.30;99.90
18153;DHT22;9202;51.578;7.734;2023-02-26T09:22:35;2.40;99.90
18153;DHT22;9202;51.578;7.734;2023-02-26T09:24:37;2.40;99.90
18153;DHT22;9202;51.578;7.734;2023-02-26T09:26:40;2.60;99.90
18153;DHT22;9202;51.578;7.734;2023-02-26T09:28:42;2.40;99.90
18153;DHT22;9202;51.578;7.734;2023-02-26T09:30:45;2.20;99.90
18153;DHT22;9202;51.578;7.734;2023-02-26T09:32:48;2.20;99.90
18153;DHT22;9202;51.578;7.734;2023-02-26T09:34:50;2.30;99.90
18153;DHT22;9202;51.578;7.734;2023-02-26T09:36:53;2.30;99.90
18153;DHT22;9202;51.578;7.734;2023-02-26T09:38:55;2.20;99.90
18153;DHT22;9202;51.578;7.734;2023-02-26T09:40:59;2.20;99.90
18153;DHT22;9202;51.578;7.734;2023-02-26T09:43:06;2.20;99.90
18153;DHT22;9202;51.578;7.734;2023-02-26T09:45:11;2.30;99.90
18153;DHT22;9202;51.578;7.734;2023-02-26T09:47:14;2.60;99.90
18153;DHT22;9202;51.578;7.734;2023-02-26T09:49:20;2.60;99.90
18153;DHT22;9202;51.578;7.734;2023-02-26T09:51:23;2.70;99.90
18153;DHT22;9202;51.578;7.734;2023-02-26T09:53:28;2.40;99.90
18153;DHT22;9202;51.578;7.734;2023-02-26T09:55:33;2.30;99.90
18153;DHT22;9202;51.578;7.734;2023-02-26T09:57:39;2.60;99.90
18153;DHT22;9202;51.578;7.734;2023-02-26T09:59:41;2.80;99.90
18153;DHT22;9202;51.578;7.734;2023-02-26T10:01:45;2.70;99.90
18153;DHT22;9202;51.578;7.734;2023-02-26T10:03:52;2.90;99.90
18153;DHT22;9202;51.578;7.734;2023-02-26T10:08:20;3.00;99.90
18153;DHT22;9202;51.578;7.734;2023-02-26T10:10:26;2.80;99.90
18153;DHT22;9202;51.578;7.734;2023-02-26T10:12:32;2.70;99.90
18153;DHT22;9202;51.578;7.734;2023-02-26T10:14:36;2.90;99.90
18153;DHT22;9202;51.578;7.734;2023-02-26T10:16:39;3.20;99.90
18153;DHT22;9202;51.578;7.734;2023-02-26T10:18:43;3.30;99.90
18153;DHT22;9202;51.578;7.734;2023-02-26T10:20:49;3.60;99.90
18153;DHT22;9202;51.578;7.734;2023-02-26T10:22:56;3.60;99.90
18153;DHT22;9202;51.578;7.734;2023-02-26T10:25:01;3.60;99.90
18153;DHT22;9202;51.578;7.734;2023-02-26T10:27:05;3.50;99.90
18153;DHT22;9202;51.578;7.734;2023-02-26T10:29:11;3.30;99.90
18153;DHT22;9202;51.578;7.734;2023-02-26T10:31:17;3.60;99.90
18153;DHT22;9202;51.578;7.734;2023-02-26T10:33:31;3.90;99.90
18153;DHT22;9202;51.578;7.734;2023-02-26T10:35:25;4.20;99.90
18153;DHT22;9202;51.578;7.734;2023-02-26T10:37:33;4.50;99.90
18153;DHT22;9202;51.578;7.734;2023-02-26T10:39:37;4.60;99.90
18153;DHT22;9202;51.578;7.734;2023-02-26T10:41:41;3.90;99.90
18153;DHT22;9202;51.578;7.734;2023-02-26T10:43:45;4.10;99.90
18153;DHT22;9202;51.578;7.734;2023-02-26T10:45:53;4.40;99.90
18153;DHT22;9202;51.578;7.734;2023-02-26T10:47:58;4.60;99.90
18153;DHT22;9202;51.578;7.734;2023-02-26T10:50:02;4.40;99.90
18153;DHT22;9202;51.578;7.734;2023-02-26T10:52:09;4.00;99.90
18153;DHT22;9202;51.578;7.734;2023-02-26T10:54:14;4.20;99.90
18153;DHT22;9202;51.578;7.734;2023-02-26T10:56:19;4.50;99.90
18153;DHT22;9202;51.578;7.734;2023-02-26T10:58:23;4.80;99.90
18153;DHT22;9202;51.578;7.734;2023-02-26T11:00:26;4.90;99.90
18153;DHT22;9202;51.578;7.734;2023-02-26T11:02:32;4.90;99.90
18153;DHT22;9202;51.578;7.734;2023-02-26T11:04:35;4.60;99.90
18153;DHT22;9202;51.578;7.734;2023-02-26T11:06:39;4.90;99.90
18153;DHT22;9202;51.578;7.734;2023-02-26T11:08:42;4.90;99.90
18153;DHT22;9202;51.578;7.734;2023-02-26T11:10:47;4.90;99.90
18153;DHT22;9202;51.578;7.734;2023-02-26T11:12:51;5.20;99.90
18153;DHT22;9202;51.578;7.734;2023-02-26T11:14:54;4.90;99.90
18153;DHT22;9202;51.578;7.734;2023-02-26T11:16:57;5.10;99.90
18153;DHT22;9202;51.578;7.734;2023-02-26T11:19:00;5.20;99.90
18153;DHT22;9202;51.578;7.734;2023-02-26T11:21:04;4.80;99.90
18153;DHT22;9202;51.578;7.734;2023-02-26T11:23:10;5.10;99.90
18153;DHT22;9202;51.578;7.734;2023-02-26T11:25:12;5.40;99.90
18153;DHT22;9202;51.578;7.734;2023-02-26T11:27:16;5.00;99.90
18153;DHT22;9202;51.578;7.734;2023-02-26T11:29:20;5.00;99.90
18153;DHT22;9202;51.578;7.734;2023-02-26T11:31:24;4.80;99.90
18153;DHT22;9202;51.578;7.734;2023-02-26T11:33:32;4.50;99.90
18153;DHT22;9202;51.578;7.734;2023-02-26T11:35:32;4.60;99.90
18153;DHT22;9202;51.578;7.734;2023-02-26T11:37:35;4.40;99.90
18153;DHT22;9202;51.578;7.734;2023-02-26T11:39:39;4.70;99.90
18153;DHT22;9202;51.578;7.734;2023-02-26T11:41:43;5.00;99.90
18153;DHT22;9202;51.578;7.734;2023-02-26T11:43:46;5.50;99.90
18153;DHT22;9202;51.578;7.734;2023-02-26T11:45:51;5.90;99.90
18153;DHT22;9202;51.578;7.734;2023-02-26T11:47:57;6.20;99.90
18153;DHT22;9202;51.578;7.734;2023-02-26T11:50:00;5.80;99.90
18153;DHT22;9202;51.578;7.734;2023-02-26T11:52:13;5.60;99.90
18153;DHT22;9202;51.578;7.734;2023-02-26T11:54:18;5.10;99.90
18153;DHT22;9202;51.578;7.734;2023-02-26T11:56:26;5.20;99.90
18153;DHT22;9202;51.578;7.734;2023-02-26T11:58:35;5.30;99.90
18153;DHT22;9202;51.578;7.734;2023-02-26T12:00:35;5.40;99.90
18153;DHT22;9202;51.578;7.734;2023-02-26T12:02:38;4.70;99.90
18153;DHT22;9202;51.578;7.734;2023-02-26T12:04:42;4.70;99.90
18153;DHT22;9202;51.578;7.734;2023-02-26T12:06:46;4.80;99.90
18153;DHT22;9202;51.578;7.734;2023-02-26T12:08:50;4.80;99.90
18153;DHT22;9202;51.578;7.734;2023-02-26T12:10:58;4.50;99.90
18153;DHT22;9202;51.578;7.734;2023-02-26T12:13:05;4.50;99.90
18153;DHT22;9202;51.578;7.734;2023-02-26T12:15:13;4.40;99.90
18153;DHT22;9202;51.578;7.734;2023-02-26T12:17:37;4.40;99.90
18153;DHT22;9202;51.578;7.734;2023-02-26T12:19:43;4.80;99.90
18153;DHT22;9202;51.578;7.734;2023-02-26T12:22:04;4.50;99.90
18153;DHT22;9202;51.578;7.734;2023-02-26T12:24:14;4.50;99.90
18153;DHT22;9202;51.578;7.734;2023-02-26T12:26:21;4.40;99.90
18153;DHT22;9202;51.578;7.734;2023-02-26T12:28:28;4.30;99.90
18153;DHT22;9202;51.578;7.734;2023-02-26T12:30:38;4.40;99.90
18153;DHT22;9202;51.578;7.734;2023-02-26T12:32:43;4.50;99.90
18153;DHT22;9202;51.578;7.734;2023-02-26T12:37:14;4.80;99.90
18153;DHT22;9202;51.578;7.734;2023-02-26T12:39:24;4.90;99.90
18153;DHT22;9202;51.578;7.734;2023-02-26T12:41:30;5.20;99.90
18153;DHT22;9202;51.578;7.734;2023-02-26T12:43:34;5.50;99.90
18153;DHT22;9202;51.578;7.734;2023-02-26T12:45:44;4.90;99.90
18153;DHT22;9202;51.578;7.734;2023-02-26T12:47:49;4.80;99.90
18153;DHT22;9202;51.578;7.734;2023-02-26T12:49:55;4.70;99.90
18153;DHT22;9202;51.578;7.734;2023-02-26T12:52:11;4.80;99.90
18153;DHT22;9202;51.578;7.734;2023-02-26T12:54:19;4.50;99.90
18153;DHT22;9202;51.578;7.734;2023-02-26T12:56:41;4.50;99.90
18153;DHT22;9202;51.578;7.734;2023-02-26T12:58:51;4.70;99.90
18153;DHT22;9202;51.578;7.734;2023-02-26T13:01:01;4.60;99.90
18153;DHT22;9202;51.578;7.734;2023-02-26T13:03:15;4.50;99.90
18153;DHT22;9202;51.578;7.734;2023-02-26T13:05:22;4.10;99.90
18153;DHT22;9202;51.578;7.734;2023-02-26T13:07:41;4.40;99.90
18153;DHT22;9202;51.578;7.734;2023-02-26T13:09:50;4.70;99.90
18153;DHT22;9202;51.578;7.734;2023-02-26T13:11:58;4.90;99.90
18153;DHT22;9202;51.578;7.734;2023-02-26T13:14:17;4.50;99.90
18153;DHT22;9202;51.578;7.734;2023-02-26T13:16:11;4.50;99.90
18153;DHT22;9202;51.578;7.734;2023-02-26T13:18:16;4.40;99.90
18153;DHT22;9202;51.578;7.734;2023-02-26T13:20:21;4.70;99.90
18153;DHT22;9202;51.578;7.734;2023-02-26T13:22:24;4.60;99.90
18153;DHT22;9202;51.578;7.734;2023-02-26T13:24:29;4.80;99.90
18153;DHT22;9202;51.578;7.734;2023-02-26T13:26:32;5.00;99.90
18153;DHT22;9202;51.578;7.734;2023-02-26T13:28:37;4.60;99.90
18153;DHT22;9202;51.578;7.734;2023-02-26T13:30:42;4.20;99.90
18153;DHT22;9202;51.578;7.734;2023-02-26T13:32:45;4.20;99.90
18153;DHT22;9202;51.578;7.734;2023-02-26T13:34:51;4.20;99.90